createdAt,value
2022-09-15T00:01:16.763Z,72.21
2022-09-15T00:03:46.653Z,72.44
2022-09-15T00:06:15.272Z,72.61
2022-09-15T00:08:43.029Z,72.84
2022-09-15T00:11:18.361Z,72.90
2022-09-15T00:13:46.835Z,73.03
2022-09-15T00:16:15.795Z,73.09
2022-09-15T00:18:45.429Z,73.15
2022-09-15T00:21:18.510Z,72.96
2022-09-15T00:23:47.465Z,72.90
2022-09-15T00:26:19.794Z,72.88
2022-09-15T00:28:48.006Z,72.85
2022-09-15T00:31:20.497Z,72.67
2022-09-15T00:33:51.021Z,72.55
2022-09-15T00:36:20.251Z,72.46
2022-09-15T00:38:48.333Z,72.55
2022-09-15T00:41:20.497Z,72.58
2022-09-15T00:43:58.952Z,72.61
2022-09-15T00:46:38.008Z,72.64
2022-09-15T00:49:20.266Z,72.71
2022-09-15T00:52:02.519Z,72.75
2022-09-15T00:54:41.179Z,72.81
2022-09-15T00:57:23.446Z,72.84
2022-09-15T00:59:53.111Z,72.88
2022-09-15T01:02:33.799Z,72.90
2022-09-15T01:05:07.125Z,73.06
2022-09-15T01:07:43.012Z,73.18
2022-09-15T01:10:39.337Z,73.39
2022-09-15T01:13:11.124Z,73.50
2022-09-15T01:16:04.913Z,73.74
2022-09-15T01:18:43.733Z,73.85
2022-09-15T01:21:34.845Z,73.75
2022-09-15T01:24:46.636Z,73.83
2022-09-15T01:27:43.002Z,73.58
2022-09-15T01:30:11.475Z,73.29
2022-09-15T01:33:14.180Z,73.09
2022-09-15T01:36:19.928Z,73.00
2022-09-15T01:39:02.017Z,72.85
2022-09-15T01:42:01.903Z,72.87
2022-09-15T01:44:34.616Z,72.96
2022-09-15T01:47:06.697Z,72.99
2022-09-15T01:50:03.369Z,73.07
2022-09-15T01:52:32.238Z,73.20
2022-09-15T01:55:08.467Z,73.24
2022-09-15T01:57:35.976Z,73.37
2022-09-15T02:00:04.923Z,73.43
2022-09-15T02:02:37.976Z,73.50
2022-09-15T02:05:24.773Z,73.64
2022-09-15T02:08:06.278Z,73.80
2022-09-15T02:10:44.868Z,73.94
2022-09-15T02:13:39.590Z,74.06
2022-09-15T02:16:17.307Z,74.22
2022-09-15T02:19:10.544Z,74.46
2022-09-15T02:21:58.941Z,74.48
2022-09-15T02:24:37.461Z,74.57
2022-09-15T02:27:13.450Z,74.58
2022-09-15T02:29:43.585Z,74.61
2022-09-15T02:32:14.598Z,74.61
2022-09-15T02:34:46.377Z,74.52
2022-09-15T02:37:15.980Z,74.42
2022-09-15T02:39:49.591Z,74.33
2022-09-15T02:42:38.064Z,74.31
2022-09-15T02:45:16.575Z,74.15
2022-09-15T02:47:57.744Z,74.14
2022-09-15T02:50:28.508Z,74.10
2022-09-15T02:52:56.406Z,74.14
2022-09-15T02:55:26.679Z,74.20
2022-09-15T02:57:56.611Z,74.19
2022-09-15T03:00:26.044Z,74.23
2022-09-15T03:02:55.062Z,74.31
2022-09-15T03:05:27.923Z,74.38
2022-09-15T03:07:56.732Z,74.61
2022-09-15T03:10:25.295Z,74.77
2022-09-15T03:12:54.952Z,74.80
2022-09-15T03:15:25.663Z,74.72
2022-09-15T03:17:54.456Z,74.94
2022-09-15T03:20:29.806Z,75.24
2022-09-15T03:22:57.462Z,75.49
2022-09-15T03:25:26.410Z,75.54
2022-09-15T03:27:53.911Z,75.52
2022-09-15T03:30:21.348Z,75.37
2022-09-15T03:32:49.116Z,75.30
2022-09-15T03:35:16.780Z,75.22
2022-09-15T03:37:45.256Z,75.11
2022-09-15T03:40:13.715Z,75.01
2022-09-15T03:42:41.291Z,74.95
2022-09-15T03:45:09.721Z,74.93
2022-09-15T03:47:37.340Z,74.92
2022-09-15T03:50:06.513Z,74.92
2022-09-15T03:52:34.285Z,74.93
2022-09-15T03:55:01.787Z,74.95
2022-09-15T03:57:29.424Z,74.88
2022-09-15T03:59:57.042Z,74.93
2022-09-15T04:02:24.982Z,75.01
2022-09-15T04:04:52.606Z,75.08
2022-09-15T04:07:20.374Z,75.29
2022-09-15T04:09:48.034Z,75.42
2022-09-15T04:12:15.915Z,75.54
2022-09-15T04:14:43.612Z,75.66
2022-09-15T04:17:11.333Z,75.78
2022-09-15T04:19:38.734Z,75.78
2022-09-15T04:22:06.634Z,75.71
2022-09-15T04:24:34.170Z,75.81
2022-09-15T04:27:01.684Z,75.66
2022-09-15T04:29:29.613Z,75.71
2022-09-15T04:31:57.595Z,75.78
2022-09-15T04:34:25.305Z,75.25
2022-09-15T04:36:52.728Z,75.52
2022-09-15T04:39:20.121Z,75.63
2022-09-15T04:41:47.507Z,75.60
2022-09-15T04:44:14.876Z,75.71
2022-09-15T04:46:42.292Z,75.75
2022-09-15T04:49:09.954Z,75.72
2022-09-15T04:51:38.062Z,75.78
2022-09-15T04:54:05.988Z,75.83
2022-09-15T04:56:33.474Z,75.84
2022-09-15T04:59:03.893Z,75.93
2022-09-15T05:01:33.928Z,76.05
2022-09-15T05:04:05.891Z,76.20
2022-09-15T05:06:35.173Z,76.33
2022-09-15T05:09:10.027Z,76.46
2022-09-15T05:11:35.390Z,76.49
2022-09-15T05:14:02.770Z,76.41
2022-09-15T05:16:31.514Z,76.40
2022-09-15T05:19:02.686Z,76.42
2022-09-15T05:21:30.666Z,76.34
2022-09-15T05:23:58.391Z,76.25
2022-09-15T05:26:28.649Z,76.16
2022-09-15T05:28:57.263Z,76.01
2022-09-15T05:31:33.154Z,75.91
2022-09-15T05:34:03.904Z,75.79
2022-09-15T05:36:32.607Z,75.77
2022-09-15T05:39:01.186Z,75.68
2022-09-15T05:41:30.032Z,75.54
2022-09-15T05:43:58.656Z,75.46
2022-09-15T05:46:28.612Z,75.54
2022-09-15T05:48:58.522Z,75.50
2022-09-15T05:51:27.044Z,75.52
2022-09-15T05:53:54.771Z,75.49
2022-09-15T05:56:22.419Z,75.48
2022-09-15T05:58:49.952Z,75.58
2022-09-15T06:01:20.739Z,75.68
2022-09-15T06:03:48.831Z,75.92
2022-09-15T06:06:17.315Z,76.23
2022-09-15T06:08:49.440Z,76.46
2022-09-15T06:11:24.257Z,76.59
2022-09-15T06:13:52.234Z,76.63
2022-09-15T06:16:23.148Z,76.58
2022-09-15T06:18:52.838Z,76.56
2022-09-15T06:21:24.999Z,76.42
2022-09-15T06:23:56.103Z,76.07
2022-09-15T06:26:24.010Z,75.86
2022-09-15T06:28:59.862Z,75.68
2022-09-15T06:31:31.023Z,75.45
2022-09-15T06:33:59.214Z,75.18
2022-09-15T06:36:29.616Z,74.87
2022-09-15T06:38:58.084Z,74.86
2022-09-15T06:41:31.112Z,74.70
2022-09-15T06:43:57.752Z,74.56
2022-09-15T06:46:28.122Z,74.50
2022-09-15T06:48:55.877Z,74.52
2022-09-15T06:51:27.527Z,74.62
2022-09-15T06:53:55.401Z,74.73
2022-09-15T06:56:23.979Z,74.88
2022-09-15T06:58:51.668Z,75.04
2022-09-15T07:01:30.780Z,75.27
2022-09-15T07:04:00.974Z,75.47
2022-09-15T07:06:31.550Z,75.65
2022-09-15T07:09:01.203Z,75.69
2022-09-15T07:11:29.578Z,75.94
2022-09-15T07:13:58.366Z,75.82
2022-09-15T07:16:26.368Z,75.81
2022-09-15T07:18:59.761Z,75.82
2022-09-15T07:21:27.261Z,75.73
2022-09-15T07:23:57.425Z,75.56
2022-09-15T07:26:28.979Z,75.28
2022-09-15T07:29:03.510Z,75.21
2022-09-15T07:31:34.063Z,75.19
2022-09-15T07:34:02.407Z,75.12
2022-09-15T07:36:31.375Z,75.27
2022-09-15T07:38:59.084Z,75.42
2022-09-15T07:41:29.799Z,75.58
2022-09-15T07:43:59.602Z,75.92
2022-09-15T07:46:31.394Z,76.05
2022-09-15T07:49:00.236Z,76.74
2022-09-15T07:51:27.435Z,76.95
2022-09-15T07:53:55.363Z,77.08
2022-09-15T07:56:23.359Z,77.06
2022-09-15T07:58:51.549Z,77.45
2022-09-15T08:01:21.796Z,77.45
2022-09-15T08:03:51.703Z,77.56
2022-09-15T08:06:23.440Z,77.65
2022-09-15T08:08:55.081Z,77.60
2022-09-15T08:11:21.459Z,77.54
2022-09-15T08:13:51.940Z,77.60
2022-09-15T08:16:23.167Z,77.47
2022-09-15T08:18:53.496Z,77.20
2022-09-15T08:21:22.952Z,77.12
2022-09-15T08:23:57.189Z,77.09
2022-09-15T08:26:27.525Z,77.03
2022-09-15T08:28:55.146Z,76.96
2022-09-15T08:31:24.651Z,76.84
2022-09-15T08:33:55.361Z,76.77
2022-09-15T08:36:25.284Z,76.80
2022-09-15T08:38:53.190Z,76.85
2022-09-15T08:41:28.633Z,77.05
2022-09-15T08:44:32.112Z,77.13
2022-09-15T08:47:13.958Z,77.20
2022-09-15T08:50:09.906Z,77.41
2022-09-15T08:52:55.171Z,77.67
2022-09-15T08:55:41.225Z,77.81
2022-09-15T08:58:32.426Z,78.01
2022-09-15T09:01:17.543Z,78.02
2022-09-15T09:03:59.936Z,78.10
2022-09-15T09:06:45.222Z,78.11
2022-09-15T09:09:47.940Z,78.07
2022-09-15T09:12:33.297Z,77.90
2022-09-15T09:15:41.047Z,77.79
2022-09-15T09:18:37.820Z,77.64
2022-09-15T09:21:23.069Z,77.45
2022-09-15T09:24:14.345Z,77.13
2022-09-15T09:26:42.844Z,76.98
2022-09-15T09:29:19.604Z,76.88
2022-09-15T09:31:52.859Z,77.01
2022-09-15T09:34:50.071Z,77.13
2022-09-15T09:37:17.743Z,77.09
2022-09-15T09:39:46.615Z,77.11
2022-09-15T09:42:18.437Z,77.19
2022-09-15T09:44:47.249Z,77.09
2022-09-15T09:47:15.739Z,77.05
2022-09-15T09:49:48.599Z,77.22
2022-09-15T09:52:22.855Z,77.31
2022-09-15T09:54:56.040Z,77.23
2022-09-15T09:57:29.338Z,77.30
2022-09-15T09:59:57.996Z,77.41
2022-09-15T10:02:28.897Z,77.45
2022-09-15T10:05:08.171Z,77.47
2022-09-15T10:07:43.351Z,77.42
2022-09-15T10:10:24.378Z,77.14
2022-09-15T10:12:56.862Z,76.82
2022-09-15T10:15:28.181Z,76.40
2022-09-15T10:17:56.987Z,76.16
2022-09-15T10:20:32.893Z,76.07
2022-09-15T10:23:08.196Z,76.04
2022-09-15T10:25:58.631Z,75.89
2022-09-15T10:28:21.123Z,76.01
2022-09-15T10:31:10.397Z,75.89
2022-09-15T10:33:42.236Z,75.68
2022-09-15T10:36:29.488Z,75.45
2022-09-15T10:39:28.616Z,75.36
2022-09-15T10:42:19.696Z,75.37
2022-09-15T10:45:04.658Z,75.33
2022-09-15T10:47:37.865Z,74.84
2022-09-15T10:50:22.990Z,74.91
2022-09-15T10:53:17.150Z,75.14
2022-09-15T10:55:52.596Z,75.37
2022-09-15T10:58:58.194Z,75.65
2022-09-15T11:01:34.150Z,75.21
2022-09-15T11:04:34.842Z,74.09
2022-09-15T11:07:33.932Z,73.99
2022-09-15T11:10:29.932Z,73.82
2022-09-15T11:13:26.842Z,73.53
2022-09-15T11:16:08.386Z,73.03
2022-09-15T11:18:44.514Z,73.01
2022-09-15T11:21:45.769Z,72.72
2022-09-15T11:24:36.950Z,72.02
2022-09-15T11:27:25.055Z,71.70
2022-09-15T11:30:07.483Z,71.66
2022-09-15T11:32:59.354Z,71.38
2022-09-15T11:35:46.428Z,71.27
2022-09-15T11:38:49.100Z,71.30
2022-09-15T11:41:44.676Z,71.64
2022-09-15T11:44:26.916Z,72.01
2022-09-15T11:47:27.698Z,72.19
2022-09-15T11:50:09.553Z,72.36
2022-09-15T11:53:09.464Z,72.93
2022-09-15T11:56:00.082Z,73.23
2022-09-15T11:58:47.491Z,72.81
2022-09-15T12:01:23.396Z,72.44
2022-09-15T12:04:04.537Z,72.73
2022-09-15T12:06:52.100Z,72.37
2022-09-15T12:09:21.046Z,72.05
2022-09-15T12:11:54.148Z,72.58
2022-09-15T12:14:43.893Z,72.67
2022-09-15T12:17:41.306Z,72.97
2022-09-15T12:20:46.253Z,73.19
2022-09-15T12:23:28.513Z,72.59
2022-09-15T12:26:07.781Z,72.78
2022-09-15T12:28:43.308Z,72.55
2022-09-15T12:31:27.554Z,72.38
2022-09-15T12:34:35.738Z,71.02
2022-09-15T12:37:17.804Z,71.21
2022-09-15T12:39:47.492Z,71.50
2022-09-15T12:42:27.609Z,71.66
2022-09-15T12:45:26.843Z,69.56
2022-09-15T12:48:04.812Z,69.49
2022-09-15T12:50:46.891Z,68.11
2022-09-15T12:53:31.144Z,68.04
2022-09-15T12:56:03.172Z,66.87
2022-09-15T12:58:36.313Z,66.19
2022-09-15T13:01:28.141Z,64.89
2022-09-15T13:04:07.348Z,64.64
2022-09-15T13:06:35.284Z,64.57
2022-09-15T13:09:15.720Z,62.88
2022-09-15T13:11:47.025Z,63.17
2022-09-15T13:14:37.618Z,64.12
2022-09-15T13:17:19.152Z,63.92
2022-09-15T13:19:53.082Z,63.84
2022-09-15T13:22:29.645Z,62.50
2022-09-15T13:25:15.180Z,62.20
2022-09-15T13:27:56.427Z,60.69
2022-09-15T13:30:53.325Z,61.73
2022-09-15T13:39:33.050Z,61.74
2022-09-15T13:42:31.016Z,62.20
2022-09-15T13:45:29.104Z,62.66
2022-09-15T13:48:08.079Z,62.22
2022-09-15T13:50:59.749Z,62.86
2022-09-15T13:53:36.778Z,63.17
2022-09-15T13:56:09.507Z,62.53
2022-09-15T13:59:01.799Z,62.42
2022-09-15T14:01:11.711Z,62.39
2022-09-15T14:03:50.396Z,61.90
2022-09-15T14:06:26.645Z,61.67
2022-09-15T14:08:58.454Z,61.95
2022-09-15T14:11:33.713Z,62.33
2022-09-15T14:14:02.537Z,62.66
2022-09-15T14:16:34.701Z,63.05
2022-09-15T14:19:24.446Z,63.50
2022-09-15T14:21:58.320Z,63.96
2022-09-15T14:24:29.777Z,64.32
2022-09-15T14:27:02.954Z,64.43
2022-09-15T14:29:30.547Z,64.24
2022-09-15T14:32:01.361Z,64.17
2022-09-15T14:34:33.057Z,64.27
2022-09-15T14:37:24.836Z,64.49
2022-09-15T14:39:58.302Z,64.37
2022-09-15T14:42:37.115Z,64.59
2022-09-15T14:47:44.794Z,64.82
2022-09-15T14:50:21.711Z,65.00
2022-09-15T14:52:54.335Z,65.08
2022-09-15T14:55:38.924Z,65.01
2022-09-15T14:58:17.222Z,65.01
2022-09-15T15:00:53.966Z,64.96
2022-09-15T15:03:27.101Z,64.82
2022-09-15T15:06:02.454Z,64.87
2022-09-15T15:08:39.503Z,64.92
2022-09-15T15:11:10.263Z,65.11
2022-09-15T15:13:41.993Z,65.02
2022-09-15T15:16:26.373Z,65.03
2022-09-15T15:18:58.592Z,64.98
2022-09-15T15:21:44.612Z,64.99
2022-09-15T15:24:22.126Z,64.90
2022-09-15T15:26:50.780Z,64.98
2022-09-15T15:29:43.580Z,65.32
2022-09-15T15:32:24.598Z,65.52
2022-09-15T15:35:01.408Z,65.50
2022-09-15T15:37:32.164Z,65.76
2022-09-15T15:40:07.419Z,66.04
2022-09-15T15:42:35.248Z,66.34
2022-09-15T15:45:23.103Z,66.34
2022-09-15T15:47:51.061Z,66.46
2022-09-15T15:50:25.714Z,66.69
2022-09-15T15:52:54.357Z,66.87
2022-09-15T15:55:26.214Z,67.19
2022-09-15T15:57:55.544Z,67.48
2022-09-15T16:00:31.009Z,67.89
2022-09-15T16:02:58.825Z,68.03
2022-09-15T16:05:29.112Z,68.42
2022-09-15T16:08:00.209Z,68.84
2022-09-15T16:10:32.518Z,69.15
2022-09-15T16:13:00.077Z,69.15
2022-09-15T16:15:27.860Z,69.05
2022-09-15T16:17:55.453Z,68.87
2022-09-15T16:20:24.668Z,68.54
2022-09-15T16:22:52.582Z,68.42
2022-09-15T16:25:36.736Z,68.27
2022-09-15T16:28:04.564Z,68.12
2022-09-15T16:30:33.275Z,67.99
2022-09-15T16:33:01.524Z,67.52
2022-09-15T16:35:54.640Z,67.28
2022-09-15T16:38:25.367Z,67.16
2022-09-15T16:40:53.495Z,67.12
2022-09-15T16:43:22.434Z,66.92
2022-09-15T16:45:51.583Z,66.86
2022-09-15T16:48:19.586Z,66.95
2022-09-15T16:51:16.875Z,67.07
2022-09-15T16:53:22.082Z,67.19
2022-09-15T16:55:52.694Z,67.32
2022-09-15T16:58:21.616Z,67.43
2022-09-15T17:00:52.389Z,67.61
2022-09-15T17:03:24.982Z,67.71
2022-09-15T17:05:55.782Z,67.86
2022-09-15T17:08:28.727Z,67.97
2022-09-15T17:11:02.441Z,68.04
2022-09-15T17:13:31.812Z,68.06
2022-09-15T17:16:01.389Z,67.90
2022-09-15T17:18:30.117Z,68.21
2022-09-15T17:20:58.539Z,68.25
2022-09-15T17:23:34.222Z,68.20
2022-09-15T17:26:06.148Z,68.06
2022-09-15T17:28:36.157Z,67.87
2022-09-15T17:31:08.354Z,67.88
2022-09-15T17:33:35.987Z,67.84
2022-09-15T17:36:04.529Z,67.82
2022-09-15T17:38:32.286Z,67.95
2022-09-15T17:40:59.943Z,68.16
2022-09-15T17:43:30.697Z,68.30
2022-09-15T17:45:58.586Z,68.46
2022-09-15T17:48:26.143Z,68.73
2022-09-15T17:50:53.893Z,68.78
2022-09-15T17:53:26.176Z,68.93
2022-09-15T17:55:55.591Z,69.07
2022-09-15T17:58:26.301Z,69.14
2022-09-15T18:00:54.206Z,69.26
2022-09-15T18:03:33.692Z,69.09
2022-09-15T18:06:06.015Z,69.15
2022-09-15T18:08:37.019Z,69.21
2022-09-15T18:11:06.595Z,69.42
2022-09-15T18:13:34.628Z,69.61
2022-09-15T18:16:09.473Z,69.62
2022-09-15T18:18:38.387Z,69.80
2022-09-15T18:21:13.694Z,69.72
2022-09-15T18:23:41.889Z,69.64
2022-09-15T18:26:09.508Z,69.51
2022-09-15T18:28:37.304Z,69.27
2022-09-15T18:31:05.414Z,69.03
2022-09-15T18:33:33.249Z,68.71
2022-09-15T18:36:00.833Z,68.73
2022-09-15T18:38:28.636Z,68.61
2022-09-15T18:40:57.170Z,68.53
2022-09-15T18:43:27.038Z,68.44
2022-09-15T18:45:59.423Z,68.42
2022-09-15T18:48:27.902Z,68.43
2022-09-15T18:50:55.862Z,68.44
2022-09-15T18:53:24.265Z,68.35
2022-09-15T18:55:52.024Z,68.49
2022-09-15T18:58:19.799Z,68.66
2022-09-15T19:00:48.451Z,68.88
2022-09-15T19:03:15.928Z,69.25
2022-09-15T19:05:45.200Z,69.32
2022-09-15T19:08:13.024Z,69.37
2022-09-15T19:10:42.402Z,69.80
2022-09-15T19:13:15.172Z,70.09
2022-09-15T19:15:43.367Z,70.51
2022-09-15T19:18:11.484Z,71.13
2022-09-15T19:20:39.842Z,71.39
2022-09-15T19:23:07.459Z,71.78
2022-09-15T19:25:35.318Z,72.06
2022-09-15T19:28:03.194Z,72.31
2022-09-15T19:30:30.661Z,72.69
2022-09-15T19:32:58.033Z,72.79
2022-09-15T19:35:25.684Z,73.06
2022-09-15T19:37:53.415Z,73.33
2022-09-15T19:40:23.154Z,73.48
2022-09-15T19:42:50.771Z,73.58
2022-09-15T19:45:18.763Z,73.69
2022-09-15T19:47:46.289Z,73.83
2022-09-15T19:50:13.906Z,73.94
2022-09-15T19:52:41.686Z,74.17
2022-09-15T19:55:11.571Z,74.30
2022-09-15T19:57:41.239Z,74.46
2022-09-15T20:00:12.369Z,74.59
2022-09-15T20:02:40.190Z,74.71
2022-09-15T20:05:08.675Z,74.98
2022-09-15T20:07:37.160Z,75.16
2022-09-15T20:10:05.949Z,75.29
2022-09-15T20:12:33.675Z,75.45
2022-09-15T20:15:01.303Z,75.61
2022-09-15T20:17:28.951Z,75.73
2022-09-15T20:19:56.509Z,76.01
2022-09-15T20:22:24.336Z,76.04
2022-09-15T20:24:51.671Z,76.17
2022-09-15T20:27:19.282Z,76.28
2022-09-15T20:29:47.006Z,76.36
2022-09-15T20:32:14.789Z,76.60
2022-09-15T20:34:42.491Z,76.41
2022-09-15T20:37:10.142Z,76.46
2022-09-15T20:39:37.829Z,76.25
2022-09-15T20:42:05.539Z,76.11
2022-09-15T20:44:33.043Z,75.86
2022-09-15T20:47:00.566Z,75.73
2022-09-15T20:49:28.183Z,75.85
2022-09-15T20:51:55.532Z,75.80
2022-09-15T20:54:22.825Z,75.68
2022-09-15T20:56:50.256Z,75.59
2022-09-15T20:59:17.786Z,75.62
2022-09-15T21:01:46.237Z,75.72
2022-09-15T21:04:14.831Z,75.94
2022-09-15T21:06:42.453Z,76.15
2022-09-15T21:09:10.240Z,76.43
2022-09-15T21:11:38.848Z,76.66
2022-09-15T21:14:06.229Z,76.80
2022-09-15T21:16:34.286Z,76.91
2022-09-15T21:19:01.898Z,77.04
2022-09-15T21:21:32.549Z,77.21
2022-09-15T21:24:06.934Z,77.15
2022-09-15T21:26:57.067Z,76.86
2022-09-15T21:29:25.880Z,76.47
2022-09-15T21:31:55.332Z,76.22
2022-09-15T21:34:23.616Z,76.15
2022-09-15T21:36:52.955Z,76.30
2022-09-15T21:39:20.910Z,76.49
2022-09-15T21:41:49.258Z,76.63
2022-09-15T21:44:17.047Z,76.73
2022-09-15T21:46:46.734Z,76.55
2022-09-15T21:49:16.804Z,76.60
2022-09-15T21:51:44.430Z,76.58
2022-09-15T21:54:11.974Z,76.60
2022-09-15T21:56:39.760Z,76.84
2022-09-15T21:59:10.173Z,76.97
2022-09-15T22:01:39.272Z,77.08
2022-09-15T22:04:10.118Z,77.22
2022-09-15T22:06:40.885Z,77.58
2022-09-15T22:09:14.958Z,77.71
2022-09-15T22:11:42.691Z,77.81
2022-09-15T22:14:11.417Z,77.80
2022-09-15T22:16:41.661Z,77.56
2022-09-15T22:19:11.424Z,77.11
2022-09-15T22:21:41.260Z,76.83
2022-09-15T22:24:12.285Z,76.96
2022-09-15T22:26:42.006Z,77.07
2022-09-15T22:29:09.911Z,77.02
2022-09-15T22:31:37.892Z,77.00
2022-09-15T22:34:05.534Z,77.03
2022-09-15T22:36:33.802Z,77.04
2022-09-15T22:39:04.544Z,77.03
2022-09-15T22:41:36.250Z,76.98
2022-09-15T22:44:05.512Z,77.03
2022-09-15T22:46:33.252Z,77.06
2022-09-15T22:49:01.154Z,77.16
2022-09-15T22:51:29.419Z,77.27
2022-09-15T22:53:57.848Z,77.34
2022-09-15T22:56:26.423Z,77.34
2022-09-15T22:58:56.273Z,77.41
2022-09-15T23:01:28.088Z,77.50
2022-09-15T23:03:59.820Z,77.61
2022-09-15T23:06:33.361Z,77.69
2022-09-15T23:09:06.075Z,77.85
2022-09-15T23:11:35.381Z,77.91
2022-09-15T23:14:03.187Z,77.79
2022-09-15T23:16:31.691Z,77.60
2022-09-15T23:18:59.788Z,77.55
2022-09-15T23:21:27.994Z,77.52
2022-09-15T23:23:56.014Z,77.37
2022-09-15T23:26:24.764Z,77.41
2022-09-15T23:28:53.085Z,77.47
2022-09-15T23:31:21.496Z,77.49
2022-09-15T23:33:49.429Z,77.60
2022-09-15T23:36:21.376Z,77.75
2022-09-15T23:38:49.637Z,77.88
2022-09-15T23:41:18.358Z,78.02
2022-09-15T23:43:47.141Z,78.13
2022-09-15T23:46:16.808Z,78.20
2022-09-15T23:48:44.990Z,78.48
2022-09-15T23:51:12.936Z,78.69
2022-09-15T23:53:40.610Z,78.79
2022-09-15T23:56:08.339Z,78.80
2022-09-15T23:58:36.206Z,78.92
